sensor_id;sensor_type;location;lat;lon;timestamp;pressure;altitude;pressure_sealevel;temperature;humidity
21234;BME280;10774;42.178;26.578;2024-03-22T00:01:39;100243.81;;;6.92;100.00
21234;BME280;10774;42.178;26.578;2024-03-22T00:04:05;100242.47;;;6.82;100.00
21234;BME280;10774;42.178;26.578;2024-03-22T00:06:31;100246.00;;;6.62;100.00
21234;BME280;10774;42.178;26.578;2024-03-22T00:08:57;100249.25;;;6.48;100.00
21234;BME280;10774;42.178;26.578;2024-03-22T00:11:22;100239.09;;;6.36;100.00
21234;BME280;10774;42.178;26.578;2024-03-22T00:13:47;100248.69;;;6.20;100.00
21234;BME280;10774;42.178;26.578;2024-03-22T00:16:13;100243.44;;;5.73;100.00
21234;BME280;10774;42.178;26.578;2024-03-22T00:18:38;100249.06;;;5.42;100.00
21234;BME280;10774;42.178;26.578;2024-03-22T00:21:04;100248.06;;;5.21;100.00
21234;BME280;10774;42.178;26.578;2024-03-22T00:23:29;100242.53;;;5.50;100.00
21234;BME280;10774;42.178;26.578;2024-03-22T00:25:55;100245.66;;;5.84;100.00
21234;BME280;10774;42.178;26.578;2024-03-22T00:28:21;100247.81;;;5.29;100.00
21234;BME280;10774;42.178;26.578;2024-03-22T00:30:46;100234.91;;;5.18;100.00
21234;BME280;10774;42.178;26.578;2024-03-22T00:33:11;100245.50;;;4.94;100.00
21234;BME280;10774;42.178;26.578;2024-03-22T00:35:37;100239.94;;;4.77;100.00
21234;BME280;10774;42.178;26.578;2024-03-22T00:38:02;100253.38;;;4.72;100.00
21234;BME280;10774;42.178;26.578;2024-03-22T00:40:28;100257.06;;;4.93;100.00
21234;BME280;10774;42.178;26.578;2024-03-22T00:42:53;100244.47;;;4.73;100.00
21234;BME280;10774;42.178;26.578;2024-03-22T00:45:18;100242.41;;;4.57;100.00
21234;BME280;10774;42.178;26.578;2024-03-22T00:47:44;100245.41;;;4.97;100.00
21234;BME280;10774;42.178;26.578;2024-03-22T00:50:09;100250.78;;;4.71;100.00
21234;BME280;10774;42.178;26.578;2024-03-22T00:52:35;100255.97;;;4.49;100.00
21234;BME280;10774;42.178;26.578;2024-03-22T00:55:00;100234.88;;;4.18;100.00
21234;BME280;10774;42.178;26.578;2024-03-22T00:57:25;100246.50;;;4.14;100.00
21234;BME280;10774;42.178;26.578;2024-03-22T00:59:51;100225.97;;;3.92;100.00
21234;BME280;10774;42.178;26.578;2024-03-22T01:02:16;100223.88;;;3.74;100.00
21234;BME280;10774;42.178;26.578;2024-03-22T01:04:42;100232.44;;;3.84;100.00
21234;BME280;10774;42.178;26.578;2024-03-22T01:07:07;100224.31;;;3.88;100.00
21234;BME280;10774;42.178;26.578;2024-03-22T01:09:34;100229.03;;;3.80;100.00
21234;BME280;10774;42.178;26.578;2024-03-22T01:11:59;100229.84;;;3.82;100.00
21234;BME280;10774;42.178;26.578;2024-03-22T01:14:24;100252.81;;;4.11;100.00
21234;BME280;10774;42.178;26.578;2024-03-22T01:16:50;100241.91;;;4.45;100.00
21234;BME280;10774;42.178;26.578;2024-03-22T01:19:15;100248.22;;;4.68;100.00
21234;BME280;10774;42.178;26.578;2024-03-22T01:21:41;100258.81;;;4.94;100.00
21234;BME280;10774;42.178;26.578;2024-03-22T01:24:06;100255.22;;;4.95;100.00
21234;BME280;10774;42.178;26.578;2024-03-22T01:26:32;100262.63;;;5.11;100.00
21234;BME280;10774;42.178;26.578;2024-03-22T01:28:57;100261.84;;;5.09;100.00
21234;BME280;10774;42.178;26.578;2024-03-22T01:31:22;100248.34;;;4.65;100.00
21234;BME280;10774;42.178;26.578;2024-03-22T01:33:48;100249.00;;;3.92;100.00
21234;BME280;10774;42.178;26.578;2024-03-22T01:36:13;100239.81;;;4.02;100.00
21234;BME280;10774;42.178;26.578;2024-03-22T01:38:38;100236.16;;;3.50;100.00
21234;BME280;10774;42.178;26.578;2024-03-22T01:41:04;100248.22;;;3.88;100.00
21234;BME280;10774;42.178;26.578;2024-03-22T01:43:29;100259.38;;;4.00;100.00
21234;BME280;10774;42.178;26.578;2024-03-22T01:45:55;100260.94;;;4.33;100.00
21234;BME280;10774;42.178;26.578;2024-03-22T01:48:20;100268.94;;;4.58;100.00
21234;BME280;10774;42.178;26.578;2024-03-22T01:50:46;100269.84;;;4.57;100.00
21234;BME280;10774;42.178;26.578;2024-03-22T01:53:11;100265.28;;;4.36;100.00
21234;BME280;10774;42.178;26.578;2024-03-22T01:55:37;100276.97;;;4.30;100.00
21234;BME280;10774;42.178;26.578;2024-03-22T01:58:03;100265.03;;;4.17;100.00
21234;BME280;10774;42.178;26.578;2024-03-22T02:00:29;100276.81;;;4.61;100.00
21234;BME280;10774;42.178;26.578;2024-03-22T02:02:55;100273.69;;;4.75;100.00
21234;BME280;10774;42.178;26.578;2024-03-22T02:05:21;100280.94;;;4.95;100.00
21234;BME280;10774;42.178;26.578;2024-03-22T02:07:47;100276.50;;;4.95;100.00
21234;BME280;10774;42.178;26.578;2024-03-22T02:10:13;100269.28;;;4.99;100.00
21234;BME280;10774;42.178;26.578;2024-03-22T02:12:40;100277.16;;;5.02;100.00
21234;BME280;10774;42.178;26.578;2024-03-22T02:15:06;100284.13;;;5.06;100.00
21234;BME280;10774;42.178;26.578;2024-03-22T02:17:32;100277.91;;;5.06;100.00
21234;BME280;10774;42.178;26.578;2024-03-22T02:19:58;100279.53;;;5.10;100.00
21234;BME280;10774;42.178;26.578;2024-03-22T02:22:24;100271.63;;;5.08;100.00
21234;BME280;10774;42.178;26.578;2024-03-22T02:24:49;100277.00;;;5.07;100.00
21234;BME280;10774;42.178;26.578;2024-03-22T02:27:14;100263.09;;;4.98;100.00
21234;BME280;10774;42.178;26.578;2024-03-22T02:29:40;100262.84;;;5.06;100.00
21234;BME280;10774;42.178;26.578;2024-03-22T02:32:06;100271.31;;;4.92;100.00
21234;BME280;10774;42.178;26.578;2024-03-22T02:34:31;100277.72;;;4.87;100.00
21234;BME280;10774;42.178;26.578;2024-03-22T02:36:57;100289.75;;;4.45;100.00
21234;BME280;10774;42.178;26.578;2024-03-22T02:39:22;100279.38;;;3.24;100.00
21234;BME280;10774;42.178;26.578;2024-03-22T02:41:48;100291.31;;;3.08;100.00
21234;BME280;10774;42.178;26.578;2024-03-22T02:44:13;100283.03;;;2.55;100.00
21234;BME280;10774;42.178;26.578;2024-03-22T02:46:38;100292.69;;;3.21;100.00
21234;BME280;10774;42.178;26.578;2024-03-22T02:49:04;100287.81;;;3.37;100.00
21234;BME280;10774;42.178;26.578;2024-03-22T02:51:29;100296.28;;;3.20;100.00
21234;BME280;10774;42.178;26.578;2024-03-22T02:53:55;100297.25;;;3.47;100.00
21234;BME280;10774;42.178;26.578;2024-03-22T02:56:20;100294.75;;;3.72;100.00
21234;BME280;10774;42.178;26.578;2024-03-22T02:58:45;100296.03;;;3.88;100.00
21234;BME280;10774;42.178;26.578;2024-03-22T03:01:11;100306.09;;;4.05;100.00
21234;BME280;10774;42.178;26.578;2024-03-22T03:03:36;100309.63;;;4.06;100.00
21234;BME280;10774;42.178;26.578;2024-03-22T03:06:02;100310.19;;;4.17;100.00
21234;BME280;10774;42.178;26.578;2024-03-22T03:08:27;100301.19;;;4.21;100.00
21234;BME280;10774;42.178;26.578;2024-03-22T03:10:52;100316.41;;;4.42;100.00
21234;BME280;10774;42.178;26.578;2024-03-22T03:13:18;100314.53;;;3.91;100.00
21234;BME280;10774;42.178;26.578;2024-03-22T03:15:43;100324.59;;;3.51;100.00
21234;BME280;10774;42.178;26.578;2024-03-22T03:18:09;100300.59;;;2.92;100.00
21234;BME280;10774;42.178;26.578;2024-03-22T03:20:34;100302.97;;;3.33;100.00
21234;BME280;10774;42.178;26.578;2024-03-22T03:22:59;100313.34;;;3.72;100.00
21234;BME280;10774;42.178;26.578;2024-03-22T03:25:26;100303.38;;;3.80;100.00
21234;BME280;10774;42.178;26.578;2024-03-22T03:27:52;100297.84;;;3.27;100.00
21234;BME280;10774;42.178;26.578;2024-03-22T03:30:17;100306.28;;;3.41;100.00
21234;BME280;10774;42.178;26.578;2024-03-22T03:32:43;100314.34;;;3.37;100.00
21234;BME280;10774;42.178;26.578;2024-03-22T03:35:08;100303.34;;;2.88;100.00
21234;BME280;10774;42.178;26.578;2024-03-22T03:37:33;100307.72;;;3.22;100.00
21234;BME280;10774;42.178;26.578;2024-03-22T03:39:59;100296.09;;;3.26;100.00
21234;BME280;10774;42.178;26.578;2024-03-22T03:42:24;100296.81;;;3.33;100.00
21234;BME280;10774;42.178;26.578;2024-03-22T03:44:50;100316.44;;;3.57;100.00
21234;BME280;10774;42.178;26.578;2024-03-22T03:47:15;100310.59;;;3.75;100.00
21234;BME280;10774;42.178;26.578;2024-03-22T03:49:41;100317.38;;;3.85;100.00
21234;BME280;10774;42.178;26.578;2024-03-22T03:52:06;100313.25;;;3.75;100.00
21234;BME280;10774;42.178;26.578;2024-03-22T03:54:31;100332.59;;;3.79;100.00
21234;BME280;10774;42.178;26.578;2024-03-22T03:56:57;100334.84;;;3.92;100.00
21234;BME280;10774;42.178;26.578;2024-03-22T03:59:23;100332.72;;;3.76;100.00
21234;BME280;10774;42.178;26.578;2024-03-22T04:01:48;100333.84;;;3.97;100.00
21234;BME280;10774;42.178;26.578;2024-03-22T04:04:13;100343.28;;;4.07;100.00
21234;BME280;10774;42.178;26.578;2024-03-22T04:06:39;100325.75;;;3.72;100.00
21234;BME280;10774;42.178;26.578;2024-03-22T04:09:04;100341.44;;;3.79;100.00
21234;BME280;10774;42.178;26.578;2024-03-22T04:11:30;100346.19;;;3.68;100.00
21234;BME280;10774;42.178;26.578;2024-03-22T04:13:56;100358.41;;;3.75;100.00
21234;BME280;10774;42.178;26.578;2024-03-22T04:16:21;100355.41;;;3.86;100.00
21234;BME280;10774;42.178;26.578;2024-03-22T04:18:47;100349.31;;;3.20;100.00
21234;BME280;10774;42.178;26.578;2024-03-22T04:21:12;100361.16;;;3.08;100.00
21234;BME280;10774;42.178;26.578;2024-03-22T04:23:38;100357.34;;;3.19;100.00
21234;BME280;10774;42.178;26.578;2024-03-22T04:26:03;100364.53;;;3.13;100.00
21234;BME280;10774;42.178;26.578;2024-03-22T04:28:29;100378.31;;;3.28;100.00
21234;BME280;10774;42.178;26.578;2024-03-22T04:31:05;100371.63;;;3.46;100.00
21234;BME280;10774;42.178;26.578;2024-03-22T04:33:31;100371.34;;;3.24;100.00
21234;BME280;10774;42.178;26.578;2024-03-22T04:35:57;100365.25;;;3.20;100.00
21234;BME280;10774;42.178;26.578;2024-03-22T04:38:23;100383.34;;;2.70;100.00
21234;BME280;10774;42.178;26.578;2024-03-22T04:40:49;100374.13;;;3.19;100.00
21234;BME280;10774;42.178;26.578;2024-03-22T04:43:15;100373.34;;;2.81;100.00
21234;BME280;10774;42.178;26.578;2024-03-22T04:45:48;100377.56;;;2.88;100.00
21234;BME280;10774;42.178;26.578;2024-03-22T04:48:18;100372.44;;;2.82;100.00
21234;BME280;10774;42.178;26.578;2024-03-22T04:50:45;100381.09;;;2.89;100.00
21234;BME280;10774;42.178;26.578;2024-03-22T04:53:10;100380.31;;;2.85;100.00
21234;BME280;10774;42.178;26.578;2024-03-22T04:55:35;100399.38;;;3.00;100.00
21234;BME280;10774;42.178;26.578;2024-03-22T04:58:01;100389.63;;;3.00;100.00
21234;BME280;10774;42.178;26.578;2024-03-22T05:00:27;100385.75;;;3.13;100.00
21234;BME280;10774;42.178;26.578;2024-03-22T05:02:53;100388.41;;;3.13;100.00
21234;BME280;10774;42.178;26.578;2024-03-22T05:05:18;100398.81;;;3.21;100.00
21234;BME280;10774;42.178;26.578;2024-03-22T05:07:44;100394.13;;;3.32;100.00
21234;BME280;10774;42.178;26.578;2024-03-22T05:10:10;100387.72;;;3.05;100.00
21234;BME280;10774;42.178;26.578;2024-03-22T05:12:36;100402.06;;;3.32;100.00
21234;BME280;10774;42.178;26.578;2024-03-22T05:15:02;100394.09;;;3.65;100.00
21234;BME280;10774;42.178;26.578;2024-03-22T05:17:29;100401.88;;;4.01;100.00
21234;BME280;10774;42.178;26.578;2024-03-22T05:19:57;100388.34;;;3.80;100.00
21234;BME280;10774;42.178;26.578;2024-03-22T05:22:22;100372.75;;;3.98;100.00
21234;BME280;10774;42.178;26.578;2024-03-22T05:24:47;100371.28;;;4.17;100.00
21234;BME280;10774;42.178;26.578;2024-03-22T05:27:13;100372.25;;;3.85;100.00
21234;BME280;10774;42.178;26.578;2024-03-22T05:29:38;100374.22;;;3.78;100.00
21234;BME280;10774;42.178;26.578;2024-03-22T05:32:05;100372.75;;;3.68;100.00
21234;BME280;10774;42.178;26.578;2024-03-22T05:34:31;100370.81;;;3.73;100.00
21234;BME280;10774;42.178;26.578;2024-03-22T05:36:56;100384.66;;;3.84;100.00
21234;BME280;10774;42.178;26.578;2024-03-22T05:39:21;100388.88;;;3.91;100.00
21234;BME280;10774;42.178;26.578;2024-03-22T05:41:47;100405.38;;;4.03;100.00
21234;BME280;10774;42.178;26.578;2024-03-22T05:44:12;100413.81;;;4.45;100.00
21234;BME280;10774;42.178;26.578;2024-03-22T05:46:38;100406.38;;;4.28;100.00
21234;BME280;10774;42.178;26.578;2024-03-22T05:49:03;100426.38;;;4.68;100.00
21234;BME280;10774;42.178;26.578;2024-03-22T05:51:28;100423.44;;;4.49;100.00
21234;BME280;10774;42.178;26.578;2024-03-22T05:53:56;100419.84;;;4.78;100.00
21234;BME280;10774;42.178;26.578;2024-03-22T05:56:24;100422.69;;;4.72;100.00
21234;BME280;10774;42.178;26.578;2024-03-22T05:58:50;100425.66;;;4.89;100.00
21234;BME280;10774;42.178;26.578;2024-03-22T06:01:15;100428.53;;;4.83;100.00
21234;BME280;10774;42.178;26.578;2024-03-22T06:03:41;100419.69;;;4.83;100.00
21234;BME280;10774;42.178;26.578;2024-03-22T06:06:06;100419.72;;;5.34;100.00
21234;BME280;10774;42.178;26.578;2024-03-22T06:08:31;100426.88;;;5.07;100.00
21234;BME280;10774;42.178;26.578;2024-03-22T06:10:59;100435.88;;;5.55;100.00
21234;BME280;10774;42.178;26.578;2024-03-22T06:13:25;100413.34;;;5.13;100.00
21234;BME280;10774;42.178;26.578;2024-03-22T06:15:50;100438.03;;;5.43;100.00
21234;BME280;10774;42.178;26.578;2024-03-22T06:18:16;100434.66;;;5.38;100.00
21234;BME280;10774;42.178;26.578;2024-03-22T06:20:41;100432.50;;;5.49;100.00
21234;BME280;10774;42.178;26.578;2024-03-22T06:23:08;100433.63;;;5.67;100.00
21234;BME280;10774;42.178;26.578;2024-03-22T06:25:33;100438.97;;;5.92;100.00
21234;BME280;10774;42.178;26.578;2024-03-22T06:27:59;100430.00;;;5.70;100.00
21234;BME280;10774;42.178;26.578;2024-03-22T06:30:24;100433.78;;;5.63;100.00
21234;BME280;10774;42.178;26.578;2024-03-22T06:32:49;100447.44;;;6.03;99.83
21234;BME280;10774;42.178;26.578;2024-03-22T06:35:15;100442.16;;;6.02;96.96
21234;BME280;10774;42.178;26.578;2024-03-22T06:37:40;100449.28;;;6.25;94.39
21234;BME280;10774;42.178;26.578;2024-03-22T06:40:07;100459.59;;;6.34;94.32
21234;BME280;10774;42.178;26.578;2024-03-22T06:42:32;100442.91;;;6.06;94.88
21234;BME280;10774;42.178;26.578;2024-03-22T06:44:58;100450.25;;;5.99;94.08
21234;BME280;10774;42.178;26.578;2024-03-22T06:47:23;100441.41;;;5.98;94.75
21234;BME280;10774;42.178;26.578;2024-03-22T06:49:49;100449.09;;;6.06;93.46
21234;BME280;10774;42.178;26.578;2024-03-22T06:52:14;100434.41;;;6.19;96.99
21234;BME280;10774;42.178;26.578;2024-03-22T06:54:40;100452.94;;;6.68;95.74
21234;BME280;10774;42.178;26.578;2024-03-22T06:57:06;100447.34;;;6.96;92.80
21234;BME280;10774;42.178;26.578;2024-03-22T06:59:31;100444.50;;;7.00;89.33
21234;BME280;10774;42.178;26.578;2024-03-22T07:01:57;100455.69;;;6.88;91.14
21234;BME280;10774;42.178;26.578;2024-03-22T07:04:22;100467.22;;;7.11;88.16
21234;BME280;10774;42.178;26.578;2024-03-22T07:06:48;100464.19;;;7.40;87.53
21234;BME280;10774;42.178;26.578;2024-03-22T07:09:13;100464.69;;;7.50;84.48
21234;BME280;10774;42.178;26.578;2024-03-22T07:11:39;100476.91;;;7.76;84.52
21234;BME280;10774;42.178;26.578;2024-03-22T07:14:05;100461.19;;;7.89;82.99
21234;BME280;10774;42.178;26.578;2024-03-22T07:16:30;100472.81;;;7.67;81.42
21234;BME280;10774;42.178;26.578;2024-03-22T07:18:56;100484.34;;;7.05;83.55
21234;BME280;10774;42.178;26.578;2024-03-22T07:21:21;100471.44;;;6.94;84.21
21234;BME280;10774;42.178;26.578;2024-03-22T07:23:47;100462.22;;;6.58;85.44
21234;BME280;10774;42.178;26.578;2024-03-22T07:26:12;100469.97;;;6.87;88.20
21234;BME280;10774;42.178;26.578;2024-03-22T07:28:38;100468.88;;;7.55;86.36
21234;BME280;10774;42.178;26.578;2024-03-22T07:31:03;100479.97;;;7.46;81.12
21234;BME280;10774;42.178;26.578;2024-03-22T07:33:31;100482.63;;;7.67;82.53
21234;BME280;10774;42.178;26.578;2024-03-22T07:35:56;100490.25;;;7.55;80.03
21234;BME280;10774;42.178;26.578;2024-03-22T07:38:26;100489.72;;;7.68;83.75
21234;BME280;10774;42.178;26.578;2024-03-22T07:40:51;100489.38;;;7.34;81.82
21234;BME280;10774;42.178;26.578;2024-03-22T07:43:17;100489.97;;;7.41;81.39
21234;BME280;10774;42.178;26.578;2024-03-22T07:45:42;100489.50;;;7.10;80.89
21234;BME280;10774;42.178;26.578;2024-03-22T07:48:08;100486.84;;;7.10;81.36
21234;BME280;10774;42.178;26.578;2024-03-22T07:50:33;100483.19;;;7.54;81.32
21234;BME280;10774;42.178;26.578;2024-03-22T07:52:59;100479.78;;;7.71;76.41
21234;BME280;10774;42.178;26.578;2024-03-22T07:55:25;100473.88;;;7.43;77.48
21234;BME280;10774;42.178;26.578;2024-03-22T07:57:51;100482.06;;;7.38;79.48
21234;BME280;10774;42.178;26.578;2024-03-22T08:00:16;100486.53;;;7.59;77.27
21234;BME280;10774;42.178;26.578;2024-03-22T08:02:42;100487.38;;;7.60;76.54
21234;BME280;10774;42.178;26.578;2024-03-22T08:05:07;100495.06;;;7.68;74.12
21234;BME280;10774;42.178;26.578;2024-03-22T08:07:33;100478.63;;;7.77;73.58
21234;BME280;10774;42.178;26.578;2024-03-22T08:09:58;100496.50;;;8.16;71.23
21234;BME280;10774;42.178;26.578;2024-03-22T08:12:25;100489.56;;;8.51;73.37
21234;BME280;10774;42.178;26.578;2024-03-22T08:14:50;100484.84;;;9.12;71.17
21234;BME280;10774;42.178;26.578;2024-03-22T08:17:16;100485.28;;;9.03;67.07
21234;BME280;10774;42.178;26.578;2024-03-22T08:19:41;100488.72;;;8.50;68.60
21234;BME280;10774;42.178;26.578;2024-03-22T08:22:07;100482.34;;;9.44;68.60
21234;BME280;10774;42.178;26.578;2024-03-22T08:24:32;100479.28;;;8.79;68.27
21234;BME280;10774;42.178;26.578;2024-03-22T08:26:59;100479.69;;;9.44;67.73
21234;BME280;10774;42.178;26.578;2024-03-22T08:29:24;100494.16;;;9.57;66.43
21234;BME280;10774;42.178;26.578;2024-03-22T08:31:50;100498.56;;;9.58;64.66
21234;BME280;10774;42.178;26.578;2024-03-22T08:34:18;100494.47;;;10.03;64.61
21234;BME280;10774;42.178;26.578;2024-03-22T08:36:44;100488.44;;;10.15;62.01
21234;BME280;10774;42.178;26.578;2024-03-22T08:39:09;100487.97;;;10.73;62.20
21234;BME280;10774;42.178;26.578;2024-03-22T08:41:36;100494.94;;;10.29;60.50
21234;BME280;10774;42.178;26.578;2024-03-22T08:44:01;100482.81;;;9.69;63.00
21234;BME280;10774;42.178;26.578;2024-03-22T08:46:27;100500.81;;;8.95;64.67
21234;BME280;10774;42.178;26.578;2024-03-22T08:48:53;100499.84;;;9.51;65.37
21234;BME280;10774;42.178;26.578;2024-03-22T08:51:19;100489.06;;;9.16;64.23
21234;BME280;10774;42.178;26.578;2024-03-22T08:53:44;100499.66;;;10.06;62.51
21234;BME280;10774;42.178;26.578;2024-03-22T08:56:10;100489.72;;;10.26;60.44
21234;BME280;10774;42.178;26.578;2024-03-22T08:58:36;100481.00;;;9.35;61.11
21234;BME280;10774;42.178;26.578;2024-03-22T09:01:01;100493.66;;;10.01;61.33
21234;BME280;10774;42.178;26.578;2024-03-22T09:03:27;100493.31;;;9.57;61.24
21234;BME280;10774;42.178;26.578;2024-03-22T09:05:53;100485.00;;;9.79;63.33
21234;BME280;10774;42.178;26.578;2024-03-22T09:08:19;100480.41;;;10.64;63.15
21234;BME280;10774;42.178;26.578;2024-03-22T09:10:46;100466.81;;;11.15;59.86
21234;BME280;10774;42.178;26.578;2024-03-22T09:13:12;100475.63;;;11.17;57.39
21234;BME280;10774;42.178;26.578;2024-03-22T09:15:38;100471.44;;;9.64;59.78
21234;BME280;10774;42.178;26.578;2024-03-22T09:18:04;100482.47;;;10.43;59.93
21234;BME280;10774;42.178;26.578;2024-03-22T09:20:29;100474.72;;;10.70;58.87
21234;BME280;10774;42.178;26.578;2024-03-22T09:22:55;100467.53;;;11.33;57.37
21234;BME280;10774;42.178;26.578;2024-03-22T09:25:20;100463.09;;;11.77;55.92
21234;BME280;10774;42.178;26.578;2024-03-22T09:27:46;100471.78;;;11.83;55.67
21234;BME280;10774;42.178;26.578;2024-03-22T09:30:12;100474.88;;;10.99;55.57
21234;BME280;10774;42.178;26.578;2024-03-22T09:32:37;100476.84;;;11.27;55.77
21234;BME280;10774;42.178;26.578;2024-03-22T09:35:03;100472.34;;;12.02;55.07
21234;BME280;10774;42.178;26.578;2024-03-22T09:37:29;100460.25;;;12.52;54.25
21234;BME280;10774;42.178;26.578;2024-03-22T09:39:54;100456.13;;;12.46;53.53
21234;BME280;10774;42.178;26.578;2024-03-22T09:42:22;100443.00;;;12.69;53.06
21234;BME280;10774;42.178;26.578;2024-03-22T09:44:49;100460.91;;;12.70;51.97
21234;BME280;10774;42.178;26.578;2024-03-22T09:47:16;100469.44;;;11.46;51.43
21234;BME280;10774;42.178;26.578;2024-03-22T09:49:42;100461.00;;;10.91;53.56
21234;BME280;10774;42.178;26.578;2024-03-22T09:52:15;100455.41;;;11.71;53.62
21234;BME280;10774;42.178;26.578;2024-03-22T09:54:44;100472.84;;;12.23;52.09
21234;BME280;10774;42.178;26.578;2024-03-22T09:57:19;100467.38;;;12.67;50.22
21234;BME280;10774;42.178;26.578;2024-03-22T09:59:46;100467.59;;;11.47;50.10
21234;BME280;10774;42.178;26.578;2024-03-22T10:02:13;100471.25;;;10.84;52.29
21234;BME280;10774;42.178;26.578;2024-03-22T10:04:41;100464.13;;;10.36;52.38
21234;BME280;10774;42.178;26.578;2024-03-22T10:07:07;100465.38;;;10.93;52.70
21234;BME280;10774;42.178;26.578;2024-03-22T10:09:36;100452.75;;;12.00;52.34
21234;BME280;10774;42.178;26.578;2024-03-22T10:12:03;100462.81;;;11.52;47.20
21234;BME280;10774;42.178;26.578;2024-03-22T10:14:29;100448.81;;;10.85;48.70
21234;BME280;10774;42.178;26.578;2024-03-22T10:16:55;100452.25;;;11.49;48.93
21234;BME280;10774;42.178;26.578;2024-03-22T10:19:22;100440.44;;;11.51;48.52
21234;BME280;10774;42.178;26.578;2024-03-22T10:21:59;100436.16;;;11.63;48.51
21234;BME280;10774;42.178;26.578;2024-03-22T10:24:25;100445.41;;;11.73;48.16
21234;BME280;10774;42.178;26.578;2024-03-22T10:26:50;100435.66;;;12.15;49.28
21234;BME280;10774;42.178;26.578;2024-03-22T10:29:16;100420.94;;;11.48;49.41
21234;BME280;10774;42.178;26.578;2024-03-22T10:31:42;100423.59;;;11.78;49.40
21234;BME280;10774;42.178;26.578;2024-03-22T10:34:09;100414.66;;;11.63;48.71
21234;BME280;10774;42.178;26.578;2024-03-22T10:36:36;100409.13;;;11.95;49.12
21234;BME280;10774;42.178;26.578;2024-03-22T10:39:02;100401.84;;;12.11;48.40
21234;BME280;10774;42.178;26.578;2024-03-22T10:41:29;100404.50;;;13.08;47.69
21234;BME280;10774;42.178;26.578;2024-03-22T10:43:54;100393.41;;;13.40;47.91
21234;BME280;10774;42.178;26.578;2024-03-22T10:46:20;100405.75;;;13.95;46.23
21234;BME280;10774;42.178;26.578;2024-03-22T10:48:46;100389.91;;;12.15;45.99
21234;BME280;10774;42.178;26.578;2024-03-22T10:51:13;100392.78;;;12.26;46.93
21234;BME280;10774;42.178;26.578;2024-03-22T10:53:41;100392.19;;;13.04;46.60
21234;BME280;10774;42.178;26.578;2024-03-22T10:56:07;100380.03;;;13.38;44.71
21234;BME280;10774;42.178;26.578;2024-03-22T10:58:34;100384.94;;;13.71;45.17
21234;BME280;10774;42.178;26.578;2024-03-22T11:01:04;100388.25;;;13.75;44.99
21234;BME280;10774;42.178;26.578;2024-03-22T11:03:30;100378.63;;;14.22;43.96
21234;BME280;10774;42.178;26.578;2024-03-22T11:05:56;100388.03;;;13.91;42.69
21234;BME280;10774;42.178;26.578;2024-03-22T11:08:29;100376.59;;;14.00;43.42
21234;BME280;10774;42.178;26.578;2024-03-22T11:11:09;100380.63;;;14.44;43.27
21234;BME280;10774;42.178;26.578;2024-03-22T11:13:41;100373.22;;;14.71;42.90
21234;BME280;10774;42.178;26.578;2024-03-22T11:16:09;100366.28;;;14.30;43.09
21234;BME280;10774;42.178;26.578;2024-03-22T11:18:35;100367.63;;;14.85;43.00
21234;BME280;10774;42.178;26.578;2024-03-22T11:21:00;100359.41;;;15.11;42.00
21234;BME280;10774;42.178;26.578;2024-03-22T11:23:26;100360.41;;;15.56;41.04
21234;BME280;10774;42.178;26.578;2024-03-22T11:25:51;100350.63;;;15.66;41.03
21234;BME280;10774;42.178;26.578;2024-03-22T11:28:16;100346.69;;;15.24;40.79
21234;BME280;10774;42.178;26.578;2024-03-22T11:30:43;100343.56;;;15.17;39.66
21234;BME280;10774;42.178;26.578;2024-03-22T11:33:10;100344.34;;;15.66;40.58
21234;BME280;10774;42.178;26.578;2024-03-22T11:35:35;100336.59;;;16.06;39.86
21234;BME280;10774;42.178;26.578;2024-03-22T11:38:01;100331.34;;;15.01;39.80
21234;BME280;10774;42.178;26.578;2024-03-22T11:40:26;100333.09;;;14.41;40.42
21234;BME280;10774;42.178;26.578;2024-03-22T11:42:55;100315.38;;;14.50;42.42
21234;BME280;10774;42.178;26.578;2024-03-22T11:45:21;100317.78;;;14.89;41.71
21234;BME280;10774;42.178;26.578;2024-03-22T11:47:48;100316.94;;;15.24;41.09
21234;BME280;10774;42.178;26.578;2024-03-22T11:50:14;100315.19;;;15.92;40.74
21234;BME280;10774;42.178;26.578;2024-03-22T11:52:41;100310.63;;;16.26;39.15
21234;BME280;10774;42.178;26.578;2024-03-22T11:55:07;100308.72;;;15.48;39.18
21234;BME280;10774;42.178;26.578;2024-03-22T11:57:32;100315.00;;;15.60;40.00
21234;BME280;10774;42.178;26.578;2024-03-22T12:00:03;100308.91;;;15.91;40.13
21234;BME280;10774;42.178;26.578;2024-03-22T12:02:31;100314.09;;;15.83;39.89
21234;BME280;10774;42.178;26.578;2024-03-22T12:04:57;100303.41;;;15.93;39.10
21234;BME280;10774;42.178;26.578;2024-03-22T12:07:23;100316.25;;;14.37;39.88
21234;BME280;10774;42.178;26.578;2024-03-22T12:09:51;100306.31;;;14.51;40.07
21234;BME280;10774;42.178;26.578;2024-03-22T12:12:21;100298.53;;;13.97;41.27
21234;BME280;10774;42.178;26.578;2024-03-22T12:14:47;100290.06;;;13.65;40.89
21234;BME280;10774;42.178;26.578;2024-03-22T12:17:12;100297.59;;;13.98;41.17
21234;BME280;10774;42.178;26.578;2024-03-22T12:19:38;100281.03;;;14.52;39.65
21234;BME280;10774;42.178;26.578;2024-03-22T12:22:03;100278.81;;;15.27;38.97
21234;BME280;10774;42.178;26.578;2024-03-22T12:24:32;100274.09;;;15.98;39.40
21234;BME280;10774;42.178;26.578;2024-03-22T12:26:57;100279.72;;;16.61;38.31
21234;BME280;10774;42.178;26.578;2024-03-22T12:29:23;100279.97;;;17.01;37.26
21234;BME280;10774;42.178;26.578;2024-03-22T12:31:49;100282.38;;;17.67;36.46
21234;BME280;10774;42.178;26.578;2024-03-22T12:34:15;100269.56;;;17.99;35.49
21234;BME280;10774;42.178;26.578;2024-03-22T12:36:40;100265.50;;;18.53;35.64